createdAt,value
2023-05-12T00:01:25.009Z,3.03
2023-05-12T00:03:53.812Z,2.78
2023-05-12T00:06:21.522Z,2.80
2023-05-12T00:08:48.690Z,3.25
2023-05-12T00:11:15.885Z,2.70
2023-05-12T00:13:43.198Z,2.63
2023-05-12T00:16:10.481Z,3.42
2023-05-12T00:18:37.741Z,2.92
2023-05-12T00:21:04.989Z,2.60
2023-05-12T00:23:32.291Z,3.00
2023-05-12T00:25:59.461Z,2.63
2023-05-12T00:28:26.685Z,2.90
2023-05-12T00:30:53.887Z,2.92
2023-05-12T00:33:21.019Z,3.20
2023-05-12T00:35:48.160Z,3.20
2023-05-12T00:38:15.295Z,2.88
2023-05-12T00:40:42.423Z,3.20
2023-05-12T00:43:09.678Z,2.92
2023-05-12T00:45:37.399Z,3.10
2023-05-12T00:48:05.729Z,3.33
2023-05-12T00:50:33.219Z,3.40
2023-05-12T00:53:02.071Z,3.60
2023-05-12T00:55:31.423Z,3.38
2023-05-12T00:57:58.797Z,3.33
2023-05-12T01:00:26.016Z,3.33
2023-05-12T01:02:53.309Z,2.97
2023-05-12T01:05:20.672Z,3.05
2023-05-12T01:07:48.022Z,3.47
2023-05-12T01:10:22.598Z,3.20
2023-05-12T01:12:50.036Z,3.60
2023-05-12T01:15:17.908Z,3.30
2023-05-12T01:17:51.360Z,3.38
2023-05-12T01:20:19.668Z,3.53
2023-05-12T01:22:48.745Z,3.60
2023-05-12T01:25:16.414Z,3.70
2023-05-12T01:27:43.904Z,3.22
2023-05-12T01:30:12.613Z,3.63
2023-05-12T01:32:40.500Z,3.95
2023-05-12T01:35:07.834Z,4.00
2023-05-12T01:37:35.021Z,3.43
2023-05-12T01:40:02.561Z,3.35
2023-05-12T01:42:29.793Z,3.50
2023-05-12T01:44:56.956Z,3.45
2023-05-12T01:47:24.230Z,3.80
2023-05-12T01:49:51.474Z,4.03
2023-05-12T01:52:18.579Z,3.78
2023-05-12T01:54:45.940Z,4.20
2023-05-12T01:57:13.052Z,3.60
2023-05-12T01:59:40.208Z,4.10
2023-05-12T02:02:07.505Z,3.50
2023-05-12T02:04:34.742Z,3.60
2023-05-12T02:07:02.059Z,3.50
2023-05-12T02:09:29.178Z,3.47
2023-05-12T02:11:56.379Z,3.10
2023-05-12T02:14:23.537Z,3.07
2023-05-12T02:16:52.746Z,3.10
2023-05-12T02:19:20.902Z,2.78
2023-05-12T02:21:48.499Z,1.75
2023-05-12T02:24:16.582Z,2.58
2023-05-12T02:26:43.926Z,2.30
2023-05-12T02:29:11.950Z,2.03
2023-05-12T02:31:39.274Z,1.92
2023-05-12T02:34:06.896Z,1.73
2023-05-12T02:36:34.192Z,1.58
2023-05-12T02:39:01.370Z,1.67
2023-05-12T02:41:28.546Z,1.70
2023-05-12T02:43:55.678Z,1.70
2023-05-12T02:46:22.894Z,1.90
2023-05-12T02:48:50.034Z,2.03
2023-05-12T02:51:17.120Z,1.47
2023-05-12T02:53:44.209Z,1.58
2023-05-12T02:56:11.934Z,1.70
2023-05-12T02:58:39.105Z,1.30
2023-05-12T03:01:11.095Z,1.58
2023-05-12T03:03:39.363Z,1.47
2023-05-12T03:06:07.051Z,1.73
2023-05-12T03:08:34.158Z,1.67
2023-05-12T03:11:01.366Z,2.17
2023-05-12T03:13:28.509Z,2.15
2023-05-12T03:15:57.091Z,2.17
2023-05-12T03:18:24.287Z,2.28
2023-05-12T03:20:51.799Z,2.58
2023-05-12T03:23:18.948Z,2.78
2023-05-12T03:25:46.046Z,3.15
2023-05-12T03:28:13.237Z,3.50
2023-05-12T03:30:40.525Z,4.07
2023-05-12T03:33:07.631Z,3.20
2023-05-12T03:35:34.772Z,3.97
2023-05-12T03:38:01.929Z,3.53
2023-05-12T03:40:29.164Z,3.90
2023-05-12T03:42:56.338Z,4.47
2023-05-12T03:45:23.623Z,4.47
2023-05-12T03:47:50.834Z,4.57
2023-05-12T03:50:18.238Z,5.18
2023-05-12T03:52:45.510Z,4.70
2023-05-12T03:55:13.517Z,5.38
2023-05-12T03:57:40.676Z,6.03
2023-05-12T04:00:08.198Z,5.45
2023-05-12T04:02:35.489Z,5.53
2023-05-12T04:05:02.780Z,5.90
2023-05-12T04:07:29.917Z,6.10
2023-05-12T04:09:57.090Z,6.57
2023-05-12T04:12:24.289Z,6.72
2023-05-12T04:14:52.056Z,6.75
2023-05-12T04:17:19.303Z,6.97
2023-05-12T04:19:46.810Z,6.68
2023-05-12T04:22:13.992Z,6.82
2023-05-12T04:24:41.141Z,7.15
2023-05-12T04:27:08.507Z,7.45
2023-05-12T04:29:36.334Z,6.80
2023-05-12T04:32:03.927Z,7.82
2023-05-12T04:34:31.358Z,7.78
2023-05-12T04:36:58.514Z,7.25
2023-05-12T04:39:25.707Z,7.88
2023-05-12T04:41:52.874Z,8.60
2023-05-12T04:44:19.976Z,8.45
2023-05-12T04:46:47.185Z,9.02
2023-05-12T04:49:14.305Z,9.02
2023-05-12T04:51:43.000Z,9.23
2023-05-12T04:54:10.889Z,9.43
2023-05-12T04:56:38.031Z,9.25
2023-05-12T04:59:05.217Z,8.82
2023-05-12T05:01:32.432Z,9.20
2023-05-12T05:03:59.865Z,10.05
2023-05-12T05:06:27.084Z,9.63
2023-05-12T05:08:55.830Z,9.70
2023-05-12T05:11:23.238Z,9.02
2023-05-12T05:13:50.427Z,9.32
2023-05-12T05:16:17.905Z,10.32
2023-05-12T05:18:47.943Z,10.93
2023-05-12T05:21:15.267Z,11.30
2023-05-12T05:23:42.922Z,10.38
2023-05-12T05:26:10.505Z,10.88
2023-05-12T05:28:39.845Z,10.85
2023-05-12T05:31:07.589Z,11.23
2023-05-12T05:33:34.857Z,11.18
2023-05-12T05:36:02.009Z,11.45
2023-05-12T05:38:29.219Z,11.30
2023-05-12T05:40:56.470Z,12.27
2023-05-12T05:43:23.721Z,11.23
2023-05-12T05:45:51.377Z,11.90
2023-05-12T05:48:18.828Z,12.93
2023-05-12T05:50:46.654Z,11.63
2023-05-12T05:53:13.874Z,12.07
2023-05-12T05:55:41.070Z,11.80
2023-05-12T05:58:08.634Z,12.90
2023-05-12T06:00:35.897Z,12.93
2023-05-12T06:03:03.208Z,12.07
2023-05-12T06:05:30.508Z,13.50
2023-05-12T06:07:57.680Z,12.07
2023-05-12T06:10:24.810Z,12.93
2023-05-12T06:12:51.990Z,12.40
2023-05-12T06:15:19.552Z,12.52
2023-05-12T06:17:46.969Z,13.10
2023-05-12T06:20:14.388Z,12.30
2023-05-12T06:22:44.461Z,13.15
2023-05-12T06:25:11.673Z,11.32
2023-05-12T06:27:38.814Z,12.82
2023-05-12T06:30:06.214Z,12.80
2023-05-12T06:32:33.445Z,12.63
2023-05-12T06:35:00.688Z,13.27
2023-05-12T06:37:28.018Z,12.70
2023-05-12T06:39:55.188Z,12.48
2023-05-12T06:42:22.306Z,13.40
2023-05-12T06:44:49.782Z,12.87
2023-05-12T06:47:17.017Z,12.60
2023-05-12T06:49:44.266Z,12.75
2023-05-12T06:52:11.513Z,13.18
2023-05-12T06:54:38.633Z,12.05
2023-05-12T06:57:05.875Z,12.63
2023-05-12T06:59:33.025Z,11.85
2023-05-12T07:02:00.371Z,12.30
2023-05-12T07:04:27.540Z,12.38
2023-05-12T07:06:54.681Z,11.80
2023-05-12T07:09:21.861Z,12.43
2023-05-12T07:11:49.257Z,11.70
2023-05-12T07:14:16.494Z,12.10
2023-05-12T07:16:43.763Z,11.90
2023-05-12T07:19:10.914Z,12.27
2023-05-12T07:21:38.048Z,11.97
2023-05-12T07:24:06.306Z,11.68
2023-05-12T07:26:33.707Z,12.55
2023-05-12T07:29:01.379Z,11.85
2023-05-12T07:31:29.071Z,11.82
2023-05-12T07:33:56.382Z,12.90
2023-05-12T07:36:23.774Z,12.68
2023-05-12T07:38:51.026Z,11.68
2023-05-12T07:41:18.191Z,11.05
2023-05-12T07:43:45.571Z,12.60
2023-05-12T07:46:12.797Z,11.43
2023-05-12T07:48:40.419Z,11.95
2023-05-12T07:51:07.980Z,11.63
2023-05-12T07:53:35.292Z,11.20
2023-05-12T07:56:02.551Z,11.70
2023-05-12T07:58:29.835Z,11.27
2023-05-12T08:01:00.070Z,11.77
2023-05-12T08:03:27.472Z,10.93
2023-05-12T08:05:54.850Z,10.02
2023-05-12T08:08:22.004Z,9.75
2023-05-12T08:10:49.114Z,10.37
2023-05-12T08:13:16.354Z,10.48
2023-05-12T08:15:43.567Z,9.80
2023-05-12T08:18:10.976Z,10.20
2023-05-12T08:20:38.248Z,10.52
2023-05-12T08:23:05.363Z,9.93
2023-05-12T08:25:34.849Z,11.07
2023-05-12T08:28:02.077Z,9.90
2023-05-12T08:30:29.369Z,9.40
2023-05-12T08:32:56.860Z,9.48
2023-05-12T08:35:27.712Z,9.60
2023-05-12T08:37:54.980Z,9.38
2023-05-12T08:40:23.179Z,8.93
2023-05-12T08:43:02.695Z,8.88
2023-05-12T08:45:30.333Z,9.32
2023-05-12T08:47:57.567Z,8.80
2023-05-12T08:50:24.892Z,8.10
2023-05-12T08:52:52.247Z,8.63
2023-05-12T08:55:25.320Z,8.25
2023-05-12T08:57:54.622Z,7.88
2023-05-12T09:00:23.367Z,8.27
2023-05-12T09:02:54.521Z,8.32
2023-05-12T09:05:23.029Z,8.02
2023-05-12T09:07:50.758Z,7.38
2023-05-12T09:10:33.693Z,7.97
2023-05-12T09:13:08.682Z,7.23
2023-05-12T09:15:40.101Z,7.50
2023-05-12T09:18:07.486Z,7.43
2023-05-12T09:20:34.789Z,8.10
2023-05-12T09:23:12.952Z,7.70
2023-05-12T09:25:40.173Z,6.90
2023-05-12T09:28:07.426Z,6.20
2023-05-12T09:30:38.098Z,7.60
2023-05-12T09:33:14.872Z,7.00
2023-05-12T09:35:42.679Z,6.70
2023-05-12T09:38:11.229Z,6.83
2023-05-12T09:40:38.600Z,6.50
2023-05-12T09:43:09.091Z,5.53
2023-05-12T09:45:37.225Z,6.82
2023-05-12T09:48:11.500Z,6.22
2023-05-12T09:50:47.650Z,5.80
2023-05-12T09:53:17.279Z,6.13
2023-05-12T09:55:44.887Z,6.15
2023-05-12T09:58:12.118Z,6.43
2023-05-12T10:00:52.522Z,6.28
2023-05-12T10:03:27.295Z,6.57
2023-05-12T10:05:57.822Z,6.63
2023-05-12T10:08:26.044Z,6.43
2023-05-12T10:10:54.461Z,6.40
2023-05-12T10:13:23.122Z,6.63
2023-05-12T10:15:50.901Z,5.43
2023-05-12T10:18:18.269Z,5.13
2023-05-12T10:20:46.231Z,5.10
2023-05-12T10:23:14.600Z,5.07
2023-05-12T10:25:43.829Z,4.40
2023-05-12T10:28:11.833Z,4.03
2023-05-12T10:30:39.579Z,4.45
2023-05-12T10:33:08.689Z,3.83
2023-05-12T10:35:37.007Z,4.38
2023-05-12T10:38:22.382Z,4.03
2023-05-12T10:40:58.127Z,3.73
2023-05-12T10:43:26.743Z,3.83
2023-05-12T10:46:07.409Z,4.10
2023-05-12T10:48:34.683Z,4.28
2023-05-12T10:51:08.563Z,4.22
2023-05-12T10:53:48.130Z,4.80
2023-05-12T10:56:22.865Z,4.13
2023-05-12T10:59:10.215Z,4.63
2023-05-12T11:01:38.977Z,4.28
2023-05-12T11:04:14.363Z,4.22
2023-05-12T11:06:43.105Z,3.70
2023-05-12T11:09:17.711Z,3.88
2023-05-12T11:11:45.748Z,3.60
2023-05-12T11:14:13.026Z,3.10
2023-05-12T11:16:43.926Z,3.10
2023-05-12T11:19:11.806Z,2.77
2023-05-12T11:21:39.923Z,3.22
2023-05-12T11:24:13.321Z,2.88
2023-05-12T11:26:41.480Z,3.40
2023-05-12T11:29:08.767Z,3.08
2023-05-12T11:31:36.051Z,2.53
2023-05-12T11:34:12.734Z,2.95
2023-05-12T11:36:44.449Z,3.00
2023-05-12T11:39:16.654Z,2.95
2023-05-12T11:41:43.894Z,3.85
2023-05-12T11:44:15.209Z,3.10
2023-05-12T11:46:42.584Z,3.15
2023-05-12T11:49:12.822Z,3.17
2023-05-12T11:51:43.574Z,2.90
2023-05-12T11:54:10.826Z,3.33
2023-05-12T11:56:38.010Z,2.90
2023-05-12T11:59:05.187Z,4.07
2023-05-12T12:01:34.536Z,3.17
2023-05-12T12:04:01.838Z,2.80
2023-05-12T12:06:29.031Z,2.90
2023-05-12T12:09:02.624Z,2.90
2023-05-12T12:11:33.813Z,2.80
2023-05-12T12:14:01.411Z,3.15
2023-05-12T12:16:29.572Z,3.40
2023-05-12T12:18:56.995Z,3.75
2023-05-12T12:21:25.064Z,3.47
2023-05-12T12:23:52.598Z,4.13
2023-05-12T12:26:21.503Z,4.05
2023-05-12T12:28:49.034Z,3.45
2023-05-12T12:31:16.784Z,3.63
2023-05-12T12:33:44.102Z,3.53
2023-05-12T12:36:11.302Z,3.60
2023-05-12T12:38:38.496Z,3.63
2023-05-12T12:41:07.090Z,3.53
2023-05-12T12:43:34.290Z,3.70
2023-05-12T12:46:01.488Z,3.73
2023-05-12T12:48:28.953Z,3.47
2023-05-12T12:50:56.445Z,3.50
2023-05-12T12:53:23.563Z,3.58
2023-05-12T12:55:51.151Z,3.65
2023-05-12T12:58:18.381Z,3.30
2023-05-12T13:00:45.873Z,3.53
2023-05-12T13:03:13.282Z,3.38
2023-05-12T13:05:40.653Z,3.78
2023-05-12T13:08:08.037Z,3.10
2023-05-12T13:10:35.520Z,3.63
2023-05-12T13:13:02.692Z,3.60
2023-05-12T13:15:32.238Z,3.20
2023-05-12T13:17:59.528Z,3.17
2023-05-12T13:20:26.832Z,3.13
2023-05-12T13:22:54.053Z,3.20
2023-05-12T13:25:21.943Z,3.50
2023-05-12T13:27:49.345Z,3.90
2023-05-12T13:30:16.486Z,3.53
2023-05-12T13:32:43.747Z,4.00
2023-05-12T13:35:10.915Z,4.07
2023-05-12T13:37:38.275Z,4.18
2023-05-12T13:40:05.759Z,3.97
2023-05-12T13:42:32.953Z,4.00
2023-05-12T13:45:00.215Z,4.03
2023-05-12T13:47:27.853Z,3.80
2023-05-12T13:49:56.520Z,4.45
2023-05-12T13:52:23.739Z,4.10
2023-05-12T13:54:51.217Z,4.13
2023-05-12T13:57:18.713Z,4.20
2023-05-12T13:59:45.863Z,3.97
2023-05-12T14:02:13.874Z,4.38
2023-05-12T14:04:41.118Z,4.57
2023-05-12T14:07:08.909Z,4.13
2023-05-12T14:09:36.178Z,4.38
2023-05-12T14:12:04.311Z,4.57
2023-05-12T14:14:31.550Z,7.40
2023-05-12T14:16:58.860Z,4.32
2023-05-12T14:19:26.001Z,3.90
2023-05-12T14:21:53.161Z,4.20
2023-05-12T14:24:20.416Z,4.53
2023-05-12T14:26:47.644Z,3.72
2023-05-12T14:29:14.825Z,4.30
2023-05-12T14:31:42.152Z,4.15
2023-05-12T14:34:09.416Z,4.65
2023-05-12T14:36:36.578Z,4.00
2023-05-12T14:39:03.874Z,3.95
2023-05-12T14:41:31.089Z,4.28
2023-05-12T14:43:58.690Z,4.60
2023-05-12T14:46:26.050Z,4.72
2023-05-12T14:48:53.212Z,4.53
2023-05-12T14:51:20.433Z,3.92
2023-05-12T14:53:47.648Z,4.43
2023-05-12T14:56:14.904Z,3.97
2023-05-12T14:58:42.142Z,4.63
2023-05-12T15:01:09.701Z,4.10
2023-05-12T15:03:37.303Z,4.97
2023-05-12T15:06:07.576Z,4.25
2023-05-12T15:08:35.448Z,4.32
2023-05-12T15:11:02.578Z,4.22
2023-05-12T15:13:29.742Z,5.07
2023-05-12T15:15:57.193Z,4.78
2023-05-12T15:18:24.654Z,4.63
2023-05-12T15:20:52.059Z,4.25
2023-05-12T15:23:19.256Z,4.68
2023-05-12T15:25:46.445Z,4.67
2023-05-12T15:28:13.653Z,4.78
2023-05-12T15:30:40.911Z,4.90
2023-05-12T15:33:08.172Z,4.15
2023-05-12T15:35:35.310Z,4.05
2023-05-12T15:38:02.467Z,4.07
2023-05-12T15:40:30.789Z,3.80
2023-05-12T15:42:58.321Z,4.22
2023-05-12T15:45:25.461Z,4.47
2023-05-12T15:47:52.799Z,4.10
2023-05-12T15:50:22.828Z,4.80
2023-05-12T15:52:50.390Z,4.05
2023-05-12T15:55:18.114Z,3.78
2023-05-12T15:57:45.443Z,4.25
2023-05-12T16:00:13.093Z,4.20
2023-05-12T16:02:40.451Z,4.10
2023-05-12T16:05:07.913Z,4.05
2023-05-12T16:07:35.482Z,4.40
2023-05-12T16:10:03.711Z,5.93
2023-05-12T16:12:30.889Z,5.50
2023-05-12T16:14:58.163Z,5.87
2023-05-12T16:17:25.367Z,4.97
2023-05-12T16:19:53.611Z,5.40
2023-05-12T16:22:20.904Z,4.80
2023-05-12T16:24:48.192Z,5.30
2023-05-12T16:27:15.462Z,4.60
2023-05-12T16:29:45.415Z,5.13
2023-05-12T16:32:12.800Z,5.28
2023-05-12T16:34:48.297Z,4.70
2023-05-12T16:37:15.602Z,5.10
2023-05-12T16:39:42.927Z,5.00
2023-05-12T16:42:10.738Z,4.78
2023-05-12T16:44:38.038Z,5.00
2023-05-12T16:47:05.431Z,4.32
2023-05-12T16:49:33.623Z,4.78
2023-05-12T16:52:00.919Z,4.93
2023-05-12T16:54:28.277Z,4.78
2023-05-12T16:56:56.449Z,4.80
2023-05-12T16:59:23.843Z,4.63
2023-05-12T17:01:51.384Z,3.90
2023-05-12T17:04:18.683Z,4.33
2023-05-12T17:06:45.929Z,4.63
2023-05-12T17:09:13.211Z,4.85
2023-05-12T17:11:40.593Z,4.40
2023-05-12T17:14:07.905Z,4.55
2023-05-12T17:16:35.239Z,4.60
2023-05-12T17:21:33.853Z,4.30
2023-05-12T17:24:01.912Z,4.93
2023-05-12T17:26:29.673Z,4.90
2023-05-12T17:28:56.839Z,4.13
2023-05-12T17:31:24.323Z,4.80
2023-05-12T17:33:51.757Z,4.53
2023-05-12T17:36:19.337Z,4.60
2023-05-12T17:38:46.814Z,4.85
2023-05-12T17:41:14.333Z,4.60
2023-05-12T17:43:41.842Z,4.20
2023-05-12T17:46:09.703Z,4.40
2023-05-12T17:48:38.570Z,4.57
2023-05-12T17:51:06.547Z,4.50
2023-05-12T17:53:34.101Z,4.40
2023-05-12T17:56:01.700Z,4.13
2023-05-12T17:58:28.882Z,4.88
2023-05-12T18:00:56.524Z,4.55
2023-05-12T18:03:24.266Z,4.32
2023-05-12T18:05:52.354Z,5.10
2023-05-12T18:08:19.679Z,5.10
2023-05-12T18:10:47.069Z,5.30
2023-05-12T18:13:15.570Z,5.90
2023-05-12T18:15:42.940Z,5.53
2023-05-12T18:18:10.887Z,5.47
2023-05-12T18:20:38.662Z,5.63
2023-05-12T18:23:05.823Z,5.95
2023-05-12T18:25:33.020Z,5.68
2023-05-12T18:28:00.406Z,6.10
2023-05-12T18:30:27.664Z,5.70
2023-05-12T18:32:55.086Z,6.00
2023-05-12T18:35:23.216Z,5.72
2023-05-12T18:37:50.846Z,5.63
2023-05-12T18:40:18.156Z,5.68
2023-05-12T18:42:45.535Z,6.10
2023-05-12T18:45:14.327Z,6.03
2023-05-12T18:47:41.674Z,5.97
2023-05-12T18:50:09.810Z,6.20
2023-05-12T18:52:37.188Z,5.97
2023-05-12T18:55:04.638Z,6.27
2023-05-12T18:57:31.924Z,6.10
2023-05-12T18:59:59.125Z,5.65
2023-05-12T19:02:26.322Z,6.43
2023-05-12T19:04:53.664Z,6.65
2023-05-12T19:07:20.878Z,6.63
2023-05-12T19:09:49.589Z,6.00
2023-05-12T19:12:16.869Z,5.85
2023-05-12T19:14:44.479Z,6.70
2023-05-12T19:17:11.700Z,6.90
2023-05-12T19:19:39.378Z,7.17
2023-05-12T19:22:06.839Z,7.22
2023-05-12T19:24:34.561Z,7.60
2023-05-12T19:27:01.867Z,7.50
2023-05-12T19:29:29.225Z,8.32
2023-05-12T19:31:56.514Z,11.13
2023-05-12T19:34:24.004Z,8.18
2023-05-12T19:36:53.055Z,8.18
2023-05-12T19:39:20.253Z,8.82
2023-05-12T19:41:47.706Z,7.70
2023-05-12T19:44:14.870Z,7.80
2023-05-12T19:46:42.005Z,7.65
2023-05-12T19:49:09.243Z,8.18
2023-05-12T19:51:36.429Z,8.00
2023-05-12T19:54:06.348Z,7.95
2023-05-12T19:56:33.808Z,7.70
2023-05-12T19:59:01.014Z,7.45
2023-05-12T20:01:28.370Z,6.80
2023-05-12T20:03:55.928Z,6.45
2023-05-12T20:06:24.952Z,6.38
2023-05-12T20:08:52.547Z,6.67
2023-05-12T20:11:19.795Z,6.50
2023-05-12T20:13:47.037Z,6.80
2023-05-12T20:16:14.517Z,6.85
2023-05-12T20:18:41.901Z,8.73
2023-05-12T20:21:09.133Z,7.63
2023-05-12T20:23:36.555Z,7.13
2023-05-12T20:26:05.002Z,8.57
2023-05-12T20:28:32.328Z,7.50
2023-05-12T20:30:59.622Z,7.60
2023-05-12T20:33:26.983Z,7.57
2023-05-12T20:35:54.294Z,7.97
2023-05-12T20:38:21.686Z,8.07
2023-05-12T20:40:48.964Z,8.60
2023-05-12T20:43:16.241Z,8.68
2023-05-12T20:45:43.571Z,7.90
2023-05-12T20:48:10.946Z,8.60
2023-05-12T20:50:38.275Z,8.77
2023-05-12T20:53:05.466Z,8.00
2023-05-12T20:55:36.012Z,8.07
2023-05-12T20:58:03.322Z,8.07
2023-05-12T21:00:30.654Z,8.68
2023-05-12T21:02:58.891Z,8.10
2023-05-12T21:05:27.003Z,7.90
2023-05-12T21:07:54.273Z,8.43
2023-05-12T21:10:21.858Z,8.43
2023-05-12T21:12:49.199Z,8.10
2023-05-12T21:15:16.455Z,7.93
2023-05-12T21:17:43.644Z,7.53
2023-05-12T21:20:11.899Z,7.97
2023-05-12T21:22:40.797Z,8.20
2023-05-12T21:25:08.350Z,8.02
2023-05-12T21:27:40.602Z,7.72
2023-05-12T21:30:11.655Z,8.02
2023-05-12T21:32:39.795Z,7.97
2023-05-12T21:35:07.764Z,7.53
2023-05-12T21:37:35.026Z,7.55
2023-05-12T21:40:02.456Z,8.00
2023-05-12T21:42:29.779Z,7.78
2023-05-12T21:44:57.057Z,8.00
2023-05-12T21:47:24.497Z,7.63
2023-05-12T21:49:55.408Z,7.55
2023-05-12T21:52:22.836Z,7.93
2023-05-12T21:54:50.028Z,8.13
2023-05-12T21:57:17.299Z,7.88
2023-05-12T21:59:45.448Z,7.70
2023-05-12T22:02:13.269Z,7.57
2023-05-12T22:04:40.522Z,7.80
2023-05-12T22:07:08.010Z,7.68
2023-05-12T22:09:35.350Z,7.60
2023-05-12T22:12:02.564Z,8.10
2023-05-12T22:14:29.888Z,7.25
2023-05-12T22:16:58.009Z,7.82
2023-05-12T22:19:25.266Z,7.85
2023-05-12T22:21:53.145Z,7.60
2023-05-12T22:24:20.269Z,7.97
2023-05-12T22:26:47.620Z,7.65
2023-05-12T22:29:14.840Z,7.10
2023-05-12T22:31:44.799Z,8.20
2023-05-12T22:34:12.397Z,7.60
2023-05-12T22:36:39.620Z,7.73
2023-05-12T22:39:06.816Z,7.63
2023-05-12T22:41:34.032Z,7.70
2023-05-12T22:44:01.333Z,8.07
2023-05-12T22:46:28.694Z,8.13
2023-05-12T22:48:56.211Z,8.70
2023-05-12T22:51:23.609Z,7.78
2023-05-12T22:53:50.899Z,8.10
2023-05-12T22:56:18.094Z,8.20
2023-05-12T22:58:45.590Z,8.00
2023-05-12T23:01:12.961Z,7.70
2023-05-12T23:03:40.156Z,7.80
2023-05-12T23:06:07.444Z,7.90
2023-05-12T23:08:35.242Z,8.07
2023-05-12T23:11:02.592Z,8.43
2023-05-12T23:13:30.196Z,7.40
2023-05-12T23:15:57.381Z,7.28
2023-05-12T23:18:24.805Z,7.70
2023-05-12T23:20:52.273Z,7.35
2023-05-12T23:23:19.468Z,7.20
2023-05-12T23:25:47.308Z,7.27
2023-05-12T23:28:14.594Z,7.15
2023-05-12T23:30:41.826Z,6.80
2023-05-12T23:33:09.185Z,6.72
2023-05-12T23:35:36.509Z,6.50
2023-05-12T23:38:03.634Z,6.70
2023-05-12T23:40:33.249Z,6.20
2023-05-12T23:43:00.531Z,6.30
2023-05-12T23:45:27.820Z,6.00
2023-05-12T23:47:55.479Z,6.13
2023-05-12T23:50:23.110Z,6.13
2023-05-12T23:52:53.340Z,6.10
2023-05-12T23:55:21.217Z,5.55
2023-05-12T23:57:48.556Z,5.65
